createdAt,value
2022-08-17T00:00:51.662Z,88.49
2022-08-17T00:01:52.086Z,88.70
2022-08-17T00:02:43.229Z,88.49
2022-08-17T00:03:42.103Z,88.49
2022-08-17T00:04:42.856Z,88.70
2022-08-17T00:05:42.070Z,88.49
2022-08-17T00:06:42.062Z,88.59
2022-08-17T00:07:42.096Z,88.59
2022-08-17T00:08:42.041Z,88.59
2022-08-17T00:09:42.054Z,88.29
2022-08-17T00:10:42.026Z,87.88
2022-08-17T00:11:42.019Z,88.09
2022-08-17T00:12:44.519Z,88.39
2022-08-17T00:13:43.007Z,88.29
2022-08-17T00:14:41.992Z,88.29
2022-08-17T00:15:42.013Z,88.59
2022-08-17T00:16:56.074Z,88.70
2022-08-17T00:17:42.967Z,88.49
2022-08-17T00:19:05.801Z,88.64
2022-08-17T00:19:42.955Z,89.45
2022-08-17T00:20:41.973Z,89.14
2022-08-17T00:22:28.738Z,89.24
2022-08-17T00:22:42.939Z,89.24
2022-08-17T00:23:47.899Z,89.04
2022-08-17T00:24:42.917Z,89.24
2022-08-17T00:25:41.934Z,89.08
2022-08-17T00:26:44.951Z,89.24
2022-08-17T00:27:41.891Z,90.09
2022-08-17T00:28:41.883Z,90.09
2022-08-17T00:29:41.874Z,89.89
2022-08-17T00:30:50.871Z,89.75
2022-08-17T00:31:42.877Z,89.85
2022-08-17T00:33:15.011Z,89.99
2022-08-17T00:33:42.838Z,89.99
2022-08-17T00:34:41.831Z,89.08
2022-08-17T00:35:41.857Z,89.79
2022-08-17T00:36:41.817Z,89.75
2022-08-17T00:37:41.807Z,89.99
2022-08-17T00:38:41.802Z,89.89
2022-08-17T00:39:41.881Z,89.99
2022-08-17T00:40:44.938Z,90.09
2022-08-17T00:41:42.510Z,89.79
2022-08-17T00:42:41.772Z,89.48
2022-08-17T00:43:41.757Z,89.89
2022-08-17T00:44:41.755Z,90.09
2022-08-17T00:45:41.773Z,89.69
2022-08-17T00:46:41.735Z,89.89
2022-08-17T00:47:41.734Z,89.79
2022-08-17T00:48:41.722Z,90.09
2022-08-17T00:49:41.712Z,90.09
2022-08-17T00:50:41.731Z,90.24
2022-08-17T00:51:41.699Z,89.89
2022-08-17T00:52:41.760Z,89.83
2022-08-17T00:53:41.685Z,89.83
2022-08-17T00:54:42.302Z,89.63
2022-08-17T00:55:41.696Z,89.94
2022-08-17T00:56:41.659Z,89.63
2022-08-17T00:57:41.659Z,89.73
2022-08-17T00:58:41.649Z,89.77
2022-08-17T00:59:41.633Z,90.24
2022-08-17T01:00:41.855Z,90.34
2022-08-17T01:01:41.660Z,90.24
2022-08-17T01:02:42.974Z,90.14
2022-08-17T01:03:41.603Z,89.94
2022-08-17T01:04:41.592Z,90.34
2022-08-17T01:05:42.363Z,90.24
2022-08-17T01:06:41.582Z,90.03
2022-08-17T01:07:41.576Z,90.14
2022-08-17T01:08:41.555Z,90.44
2022-08-17T01:09:42.558Z,90.64
2022-08-17T01:11:00.334Z,90.14
2022-08-17T01:11:42.544Z,90.54
2022-08-17T01:12:41.545Z,90.64
2022-08-17T01:13:41.882Z,90.34
2022-08-17T01:14:41.524Z,90.69
2022-08-17T01:15:41.535Z,91.55
2022-08-17T01:16:41.511Z,91.39
2022-08-17T01:17:41.494Z,91.50
2022-08-17T01:18:41.490Z,91.30
2022-08-17T01:19:41.483Z,91.50
2022-08-17T01:20:48.203Z,91.50
2022-08-17T01:21:42.461Z,91.60
2022-08-17T01:22:41.456Z,91.70
2022-08-17T01:23:41.451Z,91.80
2022-08-17T01:24:41.440Z,91.60
2022-08-17T01:25:41.470Z,91.30
2022-08-17T01:26:41.426Z,91.09
2022-08-17T01:27:41.417Z,91.80
2022-08-17T01:28:55.084Z,91.39
2022-08-17T01:29:42.407Z,91.70
2022-08-17T01:30:58.402Z,91.70
2022-08-17T01:31:42.387Z,91.90
2022-08-17T01:32:41.380Z,91.94
2022-08-17T01:33:41.375Z,91.90
2022-08-17T01:34:43.762Z,91.80
2022-08-17T01:35:42.391Z,91.80
2022-08-17T01:36:41.346Z,92.05
2022-08-17T01:37:41.342Z,92.25
2022-08-17T01:38:41.345Z,92.61
2022-08-17T01:39:41.402Z,92.05
2022-08-17T01:40:41.340Z,91.90
2022-08-17T01:41:41.316Z,91.60
2022-08-17T01:42:41.303Z,91.60
2022-08-17T01:43:41.290Z,90.93
2022-08-17T01:44:41.286Z,91.60
2022-08-17T01:45:41.298Z,91.24
2022-08-17T01:46:41.270Z,91.74
2022-08-17T01:47:41.261Z,91.34
2022-08-17T01:48:41.255Z,91.44
2022-08-17T01:49:41.238Z,91.44
2022-08-17T01:50:41.258Z,91.74
2022-08-17T01:51:41.229Z,91.74
2022-08-17T01:52:41.229Z,91.85
2022-08-17T01:53:41.220Z,92.05
2022-08-17T01:54:41.206Z,92.10
2022-08-17T01:55:41.227Z,92.05
2022-08-17T01:56:41.193Z,91.70
2022-08-17T01:57:41.184Z,91.30
2022-08-17T01:58:41.183Z,91.74
2022-08-17T01:59:41.171Z,91.70
2022-08-17T02:00:46.734Z,91.39
2022-08-17T02:01:42.169Z,91.90
2022-08-17T02:02:41.148Z,91.50
2022-08-17T02:03:41.143Z,91.30
2022-08-17T02:04:42.138Z,91.70
2022-08-17T02:05:41.162Z,91.39
2022-08-17T02:06:52.721Z,91.90
2022-08-17T02:07:59.879Z,91.50
2022-08-17T02:09:01.712Z,91.50
2022-08-17T02:09:42.220Z,91.39
2022-08-17T02:10:46.815Z,91.80
2022-08-17T02:11:42.104Z,91.39
2022-08-17T02:12:41.074Z,91.70
2022-08-17T02:13:41.064Z,91.90
2022-08-17T02:14:41.059Z,91.90
2022-08-17T02:15:41.046Z,91.70
2022-08-17T02:16:41.064Z,91.74
2022-08-17T02:17:41.043Z,91.70
2022-08-17T02:18:41.035Z,92.14
2022-08-17T02:19:41.022Z,92.31
2022-08-17T02:20:42.490Z,92.35
2022-08-17T02:21:41.027Z,91.94
2022-08-17T02:22:40.994Z,92.35
2022-08-17T02:23:40.985Z,92.86
2022-08-17T02:25:00.454Z,92.65
2022-08-17T02:25:41.973Z,92.35
2022-08-17T02:26:40.985Z,92.55
2022-08-17T02:27:40.952Z,92.86
2022-08-17T02:28:40.951Z,92.96
2022-08-17T02:29:40.937Z,93.10
2022-08-17T02:31:02.154Z,92.49
2022-08-17T02:31:41.947Z,93.10
2022-08-17T02:32:40.919Z,92.90
2022-08-17T02:33:42.528Z,93.00
2022-08-17T02:34:40.910Z,93.30
2022-08-17T02:35:40.894Z,93.00
2022-08-17T02:36:40.908Z,93.00
2022-08-17T02:37:40.865Z,93.00
2022-08-17T02:38:41.869Z,93.00
2022-08-17T02:39:40.899Z,93.30
2022-08-17T02:40:40.855Z,93.25
2022-08-17T02:41:40.873Z,93.45
2022-08-17T02:42:40.835Z,93.35
2022-08-17T02:43:40.825Z,93.76
2022-08-17T02:44:40.806Z,93.76
2022-08-17T02:45:41.817Z,93.60
2022-08-17T02:46:40.832Z,93.96
2022-08-17T02:47:40.798Z,94.46
2022-08-17T02:48:40.794Z,93.96
2022-08-17T02:49:45.119Z,94.10
2022-08-17T02:50:41.776Z,94.06
2022-08-17T02:51:40.794Z,94.57
2022-08-17T02:53:02.094Z,95.18
2022-08-17T02:53:41.753Z,94.67
2022-08-17T02:54:42.397Z,94.37
2022-08-17T02:55:41.738Z,94.06
2022-08-17T02:56:40.756Z,94.37
2022-08-17T02:57:40.713Z,93.96
2022-08-17T02:58:40.714Z,94.06
2022-08-17T02:59:43.288Z,94.37
2022-08-17T03:00:41.714Z,94.46
2022-08-17T03:01:40.751Z,94.37
2022-08-17T03:02:40.685Z,94.37
2022-08-17T03:03:40.671Z,94.26
2022-08-17T03:04:40.669Z,94.17
2022-08-17T03:05:40.660Z,94.57
2022-08-17T03:06:40.677Z,94.26
2022-08-17T03:07:40.643Z,94.46
2022-08-17T03:08:40.648Z,93.86
2022-08-17T03:09:40.628Z,94.26
2022-08-17T03:10:40.621Z,94.06
2022-08-17T03:11:40.638Z,94.06
2022-08-17T03:12:40.607Z,93.86
2022-08-17T03:13:40.598Z,94.10
2022-08-17T03:14:41.668Z,94.17
2022-08-17T03:15:41.588Z,94.61
2022-08-17T03:16:40.609Z,94.41
2022-08-17T03:17:40.569Z,94.51
2022-08-17T03:18:40.556Z,94.41
2022-08-17T03:19:42.885Z,94.31
2022-08-17T03:20:40.547Z,94.21
2022-08-17T03:21:40.564Z,94.61
2022-08-17T03:22:40.570Z,94.61
2022-08-17T03:23:40.533Z,94.41
2022-08-17T03:24:40.517Z,94.41
2022-08-17T03:25:40.520Z,94.57
2022-08-17T03:26:40.528Z,94.21
2022-08-17T03:27:42.048Z,94.41
2022-08-17T03:28:40.486Z,94.61
2022-08-17T03:29:40.485Z,94.31
2022-08-17T03:30:40.483Z,94.51
2022-08-17T03:31:40.491Z,95.22
2022-08-17T03:32:40.460Z,95.12
2022-08-17T03:33:40.458Z,94.71
2022-08-17T03:34:40.444Z,94.61
2022-08-17T03:35:40.532Z,94.92
2022-08-17T03:36:40.462Z,94.92
2022-08-17T03:37:40.422Z,94.92
2022-08-17T03:38:40.420Z,94.82
2022-08-17T03:39:40.434Z,95.02
2022-08-17T03:40:56.236Z,95.12
2022-08-17T03:41:41.421Z,95.26
2022-08-17T03:42:40.385Z,95.12
2022-08-17T03:43:40.377Z,95.12
2022-08-17T03:44:40.371Z,95.42
2022-08-17T03:45:40.363Z,95.32
2022-08-17T03:46:40.385Z,94.76
2022-08-17T03:47:40.346Z,95.26
2022-08-17T03:48:40.332Z,95.06
2022-08-17T03:49:40.326Z,95.22
2022-08-17T03:50:40.320Z,95.17
2022-08-17T03:51:40.345Z,95.57
2022-08-17T03:52:40.302Z,95.57
2022-08-17T03:53:40.299Z,95.42
2022-08-17T03:54:40.292Z,95.57
2022-08-17T03:55:40.285Z,95.78
2022-08-17T03:56:40.279Z,95.57
2022-08-17T03:57:40.291Z,95.37
2022-08-17T03:58:40.261Z,95.62
2022-08-17T03:59:40.247Z,96.23
2022-08-17T04:00:40.237Z,96.28
2022-08-17T04:01:40.314Z,96.38
2022-08-17T04:02:40.258Z,95.67
2022-08-17T04:03:40.222Z,96.18
2022-08-17T04:04:40.213Z,96.18
2022-08-17T04:05:40.210Z,95.87
2022-08-17T04:06:40.201Z,96.23
2022-08-17T04:07:40.215Z,95.53
2022-08-17T04:08:40.188Z,95.37
2022-08-17T04:09:40.176Z,95.06
2022-08-17T04:10:44.921Z,95.02
2022-08-17T04:11:42.155Z,95.26
2022-08-17T04:12:40.174Z,95.32
2022-08-17T04:13:40.146Z,95.06
2022-08-17T04:14:52.732Z,95.53
2022-08-17T04:15:42.124Z,95.02
2022-08-17T04:16:40.123Z,95.22
2022-08-17T04:17:40.140Z,95.12
2022-08-17T04:18:40.103Z,95.12
2022-08-17T04:19:40.105Z,94.61
2022-08-17T04:20:40.090Z,95.12
2022-08-17T04:21:40.082Z,95.22
2022-08-17T04:22:40.101Z,95.22
2022-08-17T04:23:40.060Z,95.22
2022-08-17T04:24:40.050Z,95.42
2022-08-17T04:25:40.050Z,95.32
2022-08-17T04:26:52.771Z,94.51
2022-08-17T04:27:41.065Z,94.57
2022-08-17T04:28:40.023Z,94.92
2022-08-17T04:29:54.547Z,94.92
2022-08-17T04:30:41.024Z,95.07
2022-08-17T04:31:40.006Z,94.61
2022-08-17T04:33:02.212Z,94.57
2022-08-17T04:33:40.988Z,94.17
2022-08-17T04:34:39.977Z,94.37
2022-08-17T04:35:39.974Z,94.02
2022-08-17T04:36:39.965Z,93.10
2022-08-17T04:37:40.988Z,92.86
2022-08-17T04:38:39.945Z,92.31
2022-08-17T04:39:39.995Z,91.96
2022-08-17T04:40:39.934Z,90.30
2022-08-17T04:41:39.923Z,88.79
2022-08-17T04:42:39.947Z,88.59
2022-08-17T04:43:39.913Z,88.39
2022-08-17T04:44:39.905Z,88.15
2022-08-17T04:45:39.892Z,87.68
2022-08-17T04:46:39.884Z,88.09
2022-08-17T04:47:39.901Z,87.28
2022-08-17T04:48:39.869Z,88.04
2022-08-17T04:49:39.860Z,88.35
2022-08-17T04:50:39.854Z,87.04
2022-08-17T04:51:39.844Z,87.24
2022-08-17T04:52:43.249Z,87.24
2022-08-17T04:53:40.837Z,86.73
2022-08-17T04:54:39.822Z,86.53
2022-08-17T04:55:39.814Z,87.44
2022-08-17T04:56:39.809Z,86.83
2022-08-17T04:57:44.529Z,86.90
2022-08-17T04:58:41.787Z,85.70
2022-08-17T04:59:39.785Z,83.56
2022-08-17T05:00:39.775Z,81.41
2022-08-17T05:01:39.857Z,79.28
2022-08-17T05:02:39.792Z,77.83
2022-08-17T05:03:40.752Z,76.76
2022-08-17T05:04:39.745Z,75.48
2022-08-17T05:05:39.739Z,73.94
2022-08-17T05:06:39.728Z,72.56
2022-08-17T05:07:39.752Z,72.03
2022-08-17T05:08:39.715Z,71.39
2022-08-17T05:09:39.704Z,71.30
2022-08-17T05:10:45.087Z,70.56
2022-08-17T05:11:40.692Z,70.83
2022-08-17T05:12:39.712Z,69.89
2022-08-17T05:13:39.685Z,68.93
2022-08-17T05:14:39.671Z,67.36
2022-08-17T05:15:39.663Z,66.00
2022-08-17T05:16:40.653Z,65.57
2022-08-17T05:17:39.671Z,64.54
2022-08-17T05:18:39.660Z,64.15
2022-08-17T05:19:39.631Z,63.85
2022-08-17T05:20:39.622Z,65.08
2022-08-17T05:21:39.612Z,64.97
2022-08-17T05:22:39.640Z,65.08
2022-08-17T05:23:42.429Z,64.15
2022-08-17T05:24:43.694Z,63.22
2022-08-17T05:25:40.590Z,62.46
2022-08-17T05:26:39.584Z,61.94
2022-08-17T05:27:39.604Z,61.74
2022-08-17T05:28:39.567Z,61.94
2022-08-17T05:29:39.562Z,61.61
2022-08-17T05:30:39.545Z,61.31
2022-08-17T05:31:40.545Z,60.78
2022-08-17T05:32:40.458Z,60.75
2022-08-17T05:33:44.448Z,60.03
2022-08-17T05:34:41.523Z,59.61
2022-08-17T05:35:39.513Z,58.59
2022-08-17T05:36:43.093Z,58.09
2022-08-17T05:37:39.501Z,57.97
2022-08-17T05:38:39.520Z,57.97
2022-08-17T05:39:39.520Z,58.26
2022-08-17T05:40:39.479Z,57.76
2022-08-17T05:41:39.467Z,56.89
2022-08-17T05:42:39.468Z,56.00
2022-08-17T05:43:39.486Z,56.20
2022-08-17T05:44:39.462Z,56.07
2022-08-17T05:45:54.337Z,55.35
2022-08-17T05:46:40.438Z,54.31
2022-08-17T05:47:39.436Z,53.30
2022-08-17T05:48:40.444Z,53.08
2022-08-17T05:49:39.424Z,52.75
2022-08-17T05:50:39.413Z,52.53
2022-08-17T05:51:39.403Z,52.83
2022-08-17T05:52:39.392Z,52.33
2022-08-17T05:53:39.415Z,52.01
2022-08-17T05:54:39.385Z,51.03
2022-08-17T05:55:39.376Z,51.20
2022-08-17T05:56:39.372Z,51.07
2022-08-17T05:57:42.448Z,50.56
2022-08-17T05:58:40.383Z,49.75
2022-08-17T05:59:39.351Z,50.26
2022-08-17T06:00:42.056Z,51.32
2022-08-17T06:01:39.360Z,51.52
2022-08-17T06:02:42.012Z,51.54
2022-08-17T06:03:40.345Z,51.20
2022-08-17T06:04:39.318Z,50.71
2022-08-17T06:05:39.305Z,51.20
2022-08-17T06:06:39.303Z,51.00
2022-08-17T06:07:39.297Z,50.78
2022-08-17T06:08:39.313Z,50.16
2022-08-17T06:09:39.286Z,50.46
2022-08-17T06:10:39.277Z,50.19
2022-08-17T06:11:39.269Z,51.03
2022-08-17T06:12:39.256Z,52.66
2022-08-17T06:13:39.283Z,53.05
2022-08-17T06:14:39.255Z,52.66
2022-08-17T06:15:39.242Z,53.27
2022-08-17T06:16:39.239Z,53.47
2022-08-17T06:17:39.227Z,53.59
2022-08-17T06:18:39.254Z,52.95
2022-08-17T06:19:39.217Z,53.96
2022-08-17T06:20:39.214Z,53.84
2022-08-17T06:21:39.193Z,53.25
2022-08-17T06:22:40.200Z,52.63
2022-08-17T06:23:39.211Z,53.25
2022-08-17T06:24:39.188Z,53.37
2022-08-17T06:25:39.211Z,53.57
2022-08-17T06:26:42.951Z,52.78
2022-08-17T06:27:40.166Z,53.25
2022-08-17T06:28:39.188Z,53.22
2022-08-17T06:29:39.159Z,52.73
2022-08-17T06:30:59.711Z,51.62
2022-08-17T06:31:40.148Z,50.93
2022-08-17T06:32:39.138Z,51.28
2022-08-17T06:33:39.158Z,50.44
2022-08-17T06:34:39.128Z,49.41
2022-08-17T06:35:39.149Z,48.72
2022-08-17T06:36:39.112Z,49.99
2022-08-17T06:37:39.113Z,50.39
2022-08-17T06:38:39.134Z,50.49
2022-08-17T06:39:39.136Z,50.29
2022-08-17T06:40:39.089Z,49.35
2022-08-17T06:41:39.083Z,49.53
2022-08-17T06:43:05.026Z,49.53
2022-08-17T06:43:40.267Z,49.04
2022-08-17T06:44:50.226Z,48.35
2022-08-17T06:45:40.078Z,49.87
2022-08-17T06:46:39.058Z,50.56
2022-08-17T06:47:39.046Z,49.68
2022-08-17T06:48:39.043Z,49.11
2022-08-17T06:49:39.061Z,48.30
2022-08-17T06:50:39.031Z,48.69
2022-08-17T06:51:39.026Z,47.69
2022-08-17T06:52:45.826Z,47.27
2022-08-17T06:53:40.008Z,47.06
2022-08-17T06:54:39.042Z,46.15
2022-08-17T06:55:38.997Z,45.91
2022-08-17T06:56:53.835Z,45.52
2022-08-17T06:57:39.987Z,45.42
2022-08-17T06:58:40.257Z,46.13
2022-08-17T06:59:54.611Z,45.30
2022-08-17T07:00:40.054Z,44.98
2022-08-17T07:01:39.037Z,44.35
2022-08-17T07:02:52.000Z,43.75
2022-08-17T07:03:39.956Z,44.45
2022-08-17T07:04:38.970Z,45.06
2022-08-17T07:05:38.965Z,44.91
2022-08-17T07:06:38.938Z,46.03
2022-08-17T07:07:38.934Z,46.05
2022-08-17T07:08:38.952Z,46.84
2022-08-17T07:09:38.926Z,46.81
2022-08-17T07:10:38.915Z,47.25
2022-08-17T07:11:38.911Z,47.47
2022-08-17T07:12:38.905Z,47.33
2022-08-17T07:13:38.928Z,45.89
2022-08-17T07:14:38.898Z,45.81
2022-08-17T07:15:38.892Z,45.37
2022-08-17T07:16:38.885Z,44.35
2022-08-17T07:17:56.849Z,44.29
2022-08-17T07:18:39.901Z,43.57
2022-08-17T07:19:38.873Z,42.16
2022-08-17T07:20:38.862Z,42.18
2022-08-17T07:21:38.861Z,42.18
2022-08-17T07:22:57.217Z,41.77
2022-08-17T07:23:39.872Z,41.79
2022-08-17T07:24:38.843Z,41.75
2022-08-17T07:25:38.834Z,44.02
2022-08-17T07:26:38.842Z,44.35
2022-08-17T07:27:38.827Z,44.35
2022-08-17T07:28:38.848Z,45.33
2022-08-17T07:29:38.819Z,44.84
2022-08-17T07:30:46.892Z,45.12
2022-08-17T07:31:39.811Z,44.43
2022-08-17T07:32:38.798Z,45.36
2022-08-17T07:33:38.823Z,44.94
2022-08-17T07:34:38.788Z,44.87
2022-08-17T07:35:41.451Z,45.14
2022-08-17T07:36:39.777Z,45.89
2022-08-17T07:37:38.769Z,47.23
2022-08-17T07:38:38.796Z,47.67
2022-08-17T07:39:59.619Z,47.55
2022-08-17T07:40:39.826Z,48.55
2022-08-17T07:41:57.120Z,48.23
2022-08-17T07:42:44.522Z,47.23
2022-08-17T07:43:40.773Z,45.86
2022-08-17T07:44:38.738Z,45.47
2022-08-17T07:45:38.747Z,45.47
2022-08-17T07:46:38.727Z,45.47
2022-08-17T07:47:38.723Z,45.30
2022-08-17T07:48:38.719Z,45.31
2022-08-17T07:49:38.737Z,43.88
2022-08-17T07:50:38.706Z,43.32
2022-08-17T07:51:38.704Z,42.38
2022-08-17T07:52:51.099Z,42.16
2022-08-17T07:53:39.691Z,43.27
2022-08-17T07:54:38.712Z,42.35
2022-08-17T07:55:38.686Z,42.45
2022-08-17T07:56:38.675Z,41.85
2022-08-17T07:57:38.672Z,41.79
2022-08-17T07:58:38.662Z,41.63
2022-08-17T07:59:38.760Z,41.73
2022-08-17T08:00:38.653Z,41.73
2022-08-17T08:01:41.779Z,41.22
2022-08-17T08:02:38.663Z,39.92
2022-08-17T08:03:38.638Z,39.82
2022-08-17T08:05:49.322Z,41.86
2022-08-17T08:06:39.616Z,41.93
2022-08-17T08:07:38.612Z,42.18
2022-08-17T08:08:38.615Z,44.29
2022-08-17T08:09:38.628Z,43.22
2022-08-17T08:10:38.598Z,44.35
2022-08-17T08:11:44.108Z,43.95
2022-08-17T08:12:39.593Z,44.12
2022-08-17T08:13:38.582Z,44.09
2022-08-17T08:14:38.597Z,44.04
2022-08-17T08:15:38.569Z,44.12
2022-08-17T08:16:39.561Z,44.67
2022-08-17T08:17:38.556Z,45.18
2022-08-17T08:18:55.852Z,45.01
2022-08-17T08:19:39.579Z,46.08
2022-08-17T08:20:53.206Z,46.01
2022-08-17T08:21:39.540Z,44.98
2022-08-17T08:22:38.535Z,45.45
2022-08-17T08:23:38.528Z,45.18
2022-08-17T08:24:38.548Z,45.67
2022-08-17T08:25:38.518Z,44.38
2022-08-17T08:26:38.512Z,43.57
2022-08-17T08:27:38.506Z,43.85
2022-08-17T08:28:38.500Z,43.41
2022-08-17T08:29:38.494Z,42.49
2022-08-17T08:30:38.516Z,42.40
2022-08-17T08:31:42.164Z,42.51
2022-08-17T08:32:39.479Z,42.40
2022-08-17T08:33:38.480Z,42.40
2022-08-17T08:34:58.817Z,42.98
2022-08-17T08:35:39.490Z,43.51
2022-08-17T08:37:14.036Z,43.65
2022-08-17T08:37:42.901Z,44.48
2022-08-17T08:38:39.449Z,45.01
2022-08-17T08:39:38.480Z,44.89
2022-08-17T08:40:38.466Z,43.87
2022-08-17T08:41:39.145Z,44.43
2022-08-17T08:42:38.438Z,43.73
2022-08-17T08:43:38.425Z,42.20
2022-08-17T08:44:59.848Z,41.99
2022-08-17T08:45:39.439Z,43.43
2022-08-17T08:46:38.405Z,43.22
2022-08-17T08:47:38.397Z,43.82
2022-08-17T08:48:52.945Z,43.43
2022-08-17T08:50:02.704Z,43.22
2022-08-17T08:50:40.412Z,44.31
2022-08-17T08:51:38.378Z,43.79
2022-08-17T08:52:38.378Z,44.89
2022-08-17T08:53:38.362Z,46.01
2022-08-17T08:54:38.355Z,46.01
2022-08-17T08:55:38.377Z,46.11
2022-08-17T08:56:38.342Z,45.59
2022-08-17T08:57:38.349Z,46.40
2022-08-17T08:58:41.887Z,45.37
2022-08-17T08:59:42.139Z,44.98
2022-08-17T09:00:39.355Z,45.67
2022-08-17T09:01:38.363Z,44.74
2022-08-17T09:02:38.310Z,44.02
2022-08-17T09:03:52.173Z,43.29
2022-08-17T09:05:02.588Z,42.47
2022-08-17T09:05:40.312Z,41.69
2022-08-17T09:06:39.845Z,42.08
2022-08-17T09:07:38.278Z,42.41
2022-08-17T09:08:38.275Z,42.49
2022-08-17T09:09:38.266Z,42.00
2022-08-17T09:10:38.292Z,42.22
2022-08-17T09:12:01.099Z,42.51
2022-08-17T09:12:39.245Z,43.32
2022-08-17T09:13:38.242Z,44.02
2022-08-17T09:14:45.029Z,43.55
2022-08-17T09:15:39.260Z,43.89
2022-08-17T09:16:38.225Z,45.10
2022-08-17T09:17:38.220Z,45.52
2022-08-17T09:19:00.614Z,45.52
2022-08-17T09:19:39.213Z,45.91
2022-08-17T09:20:38.201Z,45.03
2022-08-17T09:21:38.256Z,44.64
2022-08-17T09:22:39.189Z,45.05
2022-08-17T09:23:38.191Z,46.44
2022-08-17T09:24:38.177Z,45.27
2022-08-17T09:25:38.172Z,47.16
2022-08-17T09:26:38.285Z,45.62
2022-08-17T09:27:38.161Z,45.67
2022-08-17T09:28:38.163Z,43.81
2022-08-17T09:29:38.148Z,44.98
2022-08-17T09:30:38.136Z,43.79
2022-08-17T09:31:48.849Z,45.06
2022-08-17T09:32:39.123Z,45.47
2022-08-17T09:33:38.114Z,44.59
2022-08-17T09:34:38.116Z,44.67
2022-08-17T09:35:38.103Z,44.42
2022-08-17T09:36:38.303Z,44.54
2022-08-17T09:37:38.088Z,44.30
2022-08-17T09:38:38.084Z,43.77
2022-08-17T09:39:38.099Z,43.32
2022-08-17T09:40:38.070Z,42.22
2022-08-17T09:41:38.314Z,41.61
2022-08-17T09:42:39.060Z,41.11
2022-08-17T09:43:38.059Z,41.65
2022-08-17T09:44:38.044Z,39.96
2022-08-17T09:45:38.037Z,38.85
2022-08-17T09:46:39.012Z,38.87
2022-08-17T09:47:39.025Z,39.49
2022-08-17T09:48:38.012Z,41.35
2022-08-17T09:49:39.011Z,41.46
2022-08-17T09:51:05.173Z,41.99
2022-08-17T09:51:39.019Z,41.99
2022-08-17T09:52:38.670Z,42.48
2022-08-17T09:53:37.981Z,42.48
2022-08-17T09:54:39.715Z,41.02
2022-08-17T09:55:38.969Z,41.42
2022-08-17T09:56:42.338Z,42.01
2022-08-17T09:57:38.953Z,42.11
2022-08-17T09:58:37.951Z,41.33
2022-08-17T09:59:38.732Z,41.70
2022-08-17T10:00:37.936Z,41.50
2022-08-17T10:01:37.990Z,41.21
2022-08-17T10:02:37.925Z,41.02
2022-08-17T10:03:37.915Z,41.31
2022-08-17T10:04:37.904Z,41.48
2022-08-17T10:05:37.898Z,41.09
2022-08-17T10:06:37.921Z,39.70
2022-08-17T10:07:37.888Z,40.66
2022-08-17T10:08:37.880Z,39.88
2022-08-17T10:09:37.872Z,40.06
2022-08-17T10:10:37.866Z,40.83
2022-08-17T10:11:37.888Z,41.13
2022-08-17T10:12:38.854Z,40.06
2022-08-17T10:13:38.847Z,39.78
2022-08-17T10:14:44.152Z,41.44
2022-08-17T10:15:42.456Z,41.25
2022-08-17T10:16:37.855Z,41.05
2022-08-17T10:17:37.821Z,42.02
2022-08-17T10:18:37.836Z,41.05
2022-08-17T10:19:37.808Z,41.54
2022-08-17T10:20:37.802Z,41.83
2022-08-17T10:21:37.814Z,41.85
2022-08-17T10:22:38.268Z,41.75
2022-08-17T10:23:37.783Z,41.17
2022-08-17T10:24:37.776Z,40.31
2022-08-17T10:25:53.958Z,41.58
2022-08-17T10:26:46.240Z,40.68
2022-08-17T10:27:38.746Z,40.19
2022-08-17T10:28:37.742Z,39.80
2022-08-17T10:29:48.862Z,40.39
2022-08-17T10:30:38.729Z,39.69
2022-08-17T10:31:37.757Z,39.39
2022-08-17T10:32:37.712Z,39.59
2022-08-17T10:33:37.717Z,39.49
2022-08-17T10:34:38.877Z,39.69
2022-08-17T10:35:37.690Z,41.05
2022-08-17T10:36:37.711Z,41.44
2022-08-17T10:37:37.678Z,41.27
2022-08-17T10:38:37.673Z,41.66
2022-08-17T10:39:52.344Z,41.17
2022-08-17T10:40:38.652Z,42.16
2022-08-17T10:41:40.409Z,41.87
2022-08-17T10:42:38.656Z,41.99
2022-08-17T10:43:37.634Z,42.48
2022-08-17T10:44:41.047Z,42.09
2022-08-17T10:45:37.620Z,43.08
2022-08-17T10:46:37.715Z,41.91
2022-08-17T10:47:54.697Z,42.21
2022-08-17T10:48:39.600Z,41.91
2022-08-17T10:49:37.594Z,41.52
2022-08-17T10:50:37.588Z,41.50
2022-08-17T10:51:37.606Z,41.21
2022-08-17T10:52:37.572Z,40.92
2022-08-17T10:53:37.568Z,43.46
2022-08-17T10:54:37.555Z,42.40
2022-08-17T10:55:37.552Z,42.58
2022-08-17T10:56:37.571Z,41.89
2022-08-17T10:57:37.544Z,41.70
2022-08-17T10:58:37.532Z,42.09
2022-08-17T10:59:37.528Z,43.16
2022-08-17T11:00:37.559Z,42.50
2022-08-17T11:01:37.538Z,42.60
2022-08-17T11:02:37.502Z,43.28
2022-08-17T11:03:37.496Z,43.38
2022-08-17T11:04:37.491Z,43.30
2022-08-17T11:05:41.503Z,43.40
2022-08-17T11:06:39.594Z,43.03
2022-08-17T11:07:37.466Z,43.32
2022-08-17T11:08:37.460Z,42.54
2022-08-17T11:09:37.452Z,43.52
2022-08-17T11:10:37.441Z,43.54
2022-08-17T11:11:37.437Z,43.73
2022-08-17T11:12:37.497Z,43.34
2022-08-17T11:13:37.425Z,43.71
2022-08-17T11:14:37.417Z,43.32
2022-08-17T11:15:37.399Z,43.84
2022-08-17T11:16:38.429Z,43.56
2022-08-17T11:17:37.405Z,43.98
2022-08-17T11:18:37.409Z,43.48
2022-08-17T11:19:37.383Z,43.41
2022-08-17T11:20:37.377Z,44.07
2022-08-17T11:21:37.385Z,43.99
2022-08-17T11:22:37.403Z,45.47
2022-08-17T11:23:37.358Z,45.29
2022-08-17T11:24:37.365Z,45.70
2022-08-17T11:25:37.351Z,47.08
2022-08-17T11:26:37.337Z,46.51
2022-08-17T11:27:37.360Z,46.41
2022-08-17T11:28:37.324Z,46.63
2022-08-17T11:29:37.334Z,45.95
2022-08-17T11:30:37.335Z,46.06
2022-08-17T11:31:39.156Z,45.16
2022-08-17T11:32:37.326Z,45.97
2022-08-17T11:33:38.226Z,45.97
2022-08-17T11:34:37.271Z,47.32
2022-08-17T11:35:37.264Z,47.81
2022-08-17T11:36:37.265Z,47.32
2022-08-17T11:37:37.292Z,48.11
2022-08-17T11:38:37.244Z,48.60
2022-08-17T11:39:37.328Z,48.01
2022-08-17T11:40:37.230Z,48.21
2022-08-17T11:41:37.250Z,47.93
2022-08-17T11:42:37.241Z,48.13
2022-08-17T11:43:42.293Z,48.03
2022-08-17T11:44:39.199Z,48.60
2022-08-17T11:45:37.193Z,48.21
2022-08-17T11:46:37.185Z,47.61
2022-08-17T11:47:37.204Z,47.39
2022-08-17T11:48:37.176Z,47.00
2022-08-17T11:49:37.178Z,47.37
2022-08-17T11:50:37.158Z,46.00
2022-08-17T11:51:37.154Z,46.08
2022-08-17T11:52:37.163Z,45.88
2022-08-17T11:53:37.161Z,45.00
2022-08-17T11:54:37.129Z,46.44
2022-08-17T11:55:40.675Z,45.25
2022-08-17T11:56:39.107Z,45.44
2022-08-17T11:57:37.130Z,45.03
2022-08-17T11:58:37.096Z,43.66
2022-08-17T11:59:37.095Z,43.56
2022-08-17T12:00:37.080Z,44.52
2022-08-17T12:01:37.075Z,42.25
2022-08-17T12:02:37.097Z,42.56
2022-08-17T12:03:37.058Z,42.76
2022-08-17T12:04:37.141Z,43.37
2022-08-17T12:05:37.042Z,42.78
2022-08-17T12:06:38.038Z,42.58
2022-08-17T12:07:37.056Z,42.38
2022-08-17T12:08:37.023Z,43.58
2022-08-17T12:09:37.015Z,42.97
2022-08-17T12:10:37.012Z,43.56
2022-08-17T12:11:55.339Z,43.95
2022-08-17T12:12:38.018Z,43.48
2022-08-17T12:13:39.542Z,43.21
2022-08-17T12:15:05.967Z,43.60
2022-08-17T12:15:38.969Z,43.38
2022-08-17T12:16:36.965Z,44.38
2022-08-17T12:17:40.863Z,43.80
2022-08-17T12:18:37.952Z,43.99
2022-08-17T12:19:36.943Z,44.31
2022-08-17T12:20:36.936Z,43.52
2022-08-17T12:21:36.927Z,44.43
2022-08-17T12:22:36.950Z,44.23
2022-08-17T12:23:36.915Z,45.61
2022-08-17T12:24:36.902Z,45.14
2022-08-17T12:25:36.902Z,45.06
2022-08-17T12:26:36.886Z,45.85
2022-08-17T12:27:46.143Z,46.14
2022-08-17T12:28:37.881Z,46.26
2022-08-17T12:29:38.727Z,46.17
2022-08-17T12:30:36.867Z,46.36
2022-08-17T12:31:36.861Z,46.36
2022-08-17T12:32:36.876Z,46.56
2022-08-17T12:33:36.848Z,45.28
2022-08-17T12:34:36.837Z,46.06
2022-08-17T12:35:36.828Z,46.17
2022-08-17T12:36:36.823Z,46.17
2022-08-17T12:37:36.839Z,47.32
2022-08-17T12:38:36.833Z,46.85
2022-08-17T12:39:36.838Z,46.97
2022-08-17T12:40:36.794Z,47.36
2022-08-17T12:41:36.874Z,47.88
2022-08-17T12:42:36.814Z,47.58
2022-08-17T12:43:36.775Z,47.39
2022-08-17T12:44:36.794Z,48.47
2022-08-17T12:45:37.754Z,49.35
2022-08-17T12:46:36.759Z,48.79
2022-08-17T12:47:36.746Z,49.30
2022-08-17T12:48:36.765Z,48.91
2022-08-17T12:49:36.736Z,48.83
2022-08-17T12:50:36.721Z,49.04
2022-08-17T12:51:36.715Z,50.31
2022-08-17T12:52:36.736Z,49.13
2022-08-17T12:53:36.701Z,50.71